createdAt,value
2023-01-01T00:01:44.602Z,28.13
2023-01-01T00:04:49.949Z,28.58
2023-01-01T00:08:04.342Z,30.77
2023-01-01T00:11:12.412Z,25.15
2023-01-01T00:14:17.030Z,21.05
2023-01-01T00:17:21.640Z,23.27
2023-01-01T00:20:34.898Z,17.13
2023-01-01T00:23:43.660Z,15.00
2023-01-01T00:26:50.254Z,11.98
2023-01-01T00:29:55.008Z,10.80
2023-01-01T00:32:59.773Z,12.30
2023-01-01T00:36:09.378Z,10.63
2023-01-01T00:39:15.532Z,9.15
2023-01-01T00:42:22.338Z,7.13
2023-01-01T00:45:26.660Z,9.05
2023-01-01T00:48:31.581Z,7.85
2023-01-01T00:51:37.348Z,6.38
2023-01-01T00:54:44.015Z,5.90
2023-01-01T00:57:48.726Z,5.78
2023-01-01T01:00:55.734Z,6.53
2023-01-01T01:04:02.390Z,6.20
2023-01-01T01:07:07.185Z,7.03
2023-01-01T01:10:14.575Z,7.68
2023-01-01T01:13:19.451Z,5.93
2023-01-01T01:16:26.928Z,8.55
2023-01-01T01:19:33.455Z,4.47
2023-01-01T01:22:38.423Z,6.45
2023-01-01T01:25:44.523Z,6.75
2023-01-01T01:28:50.313Z,6.32
2023-01-01T01:31:55.057Z,4.95
2023-01-01T01:35:01.550Z,4.50
2023-01-01T01:38:07.009Z,6.53
2023-01-01T01:41:26.911Z,5.25
2023-01-01T01:45:03.256Z,6.25
2023-01-01T01:48:10.009Z,6.70
2023-01-01T01:51:17.682Z,5.07
2023-01-01T01:54:26.259Z,6.75
2023-01-01T01:57:34.052Z,5.25
2023-01-01T02:00:39.351Z,6.95
2023-01-01T02:03:50.031Z,4.53
2023-01-01T02:06:55.722Z,5.95
2023-01-01T02:10:00.941Z,5.10
2023-01-01T02:13:07.482Z,5.45
2023-01-01T02:16:21.841Z,5.13
2023-01-01T02:19:39.137Z,6.75
2023-01-01T02:23:05.504Z,3.97
2023-01-01T02:26:38.964Z,5.32
2023-01-01T02:29:51.091Z,3.83
2023-01-01T02:33:00.975Z,3.55
2023-01-01T02:36:08.429Z,3.58
2023-01-01T02:39:16.006Z,4.60
2023-01-01T02:42:23.020Z,3.65
2023-01-01T02:45:29.321Z,3.40
2023-01-01T02:48:40.975Z,3.65
2023-01-01T02:52:01.507Z,3.85
2023-01-01T02:55:12.091Z,2.85
2023-01-01T02:58:43.625Z,3.03
2023-01-01T03:01:56.907Z,4.07
2023-01-01T03:05:11.053Z,3.78
2023-01-01T03:08:19.788Z,4.10
2023-01-01T03:11:27.755Z,4.38
2023-01-01T03:14:42.308Z,3.08
2023-01-01T03:17:55.148Z,3.17
2023-01-01T03:21:04.348Z,2.50
2023-01-01T03:24:11.531Z,3.10
2023-01-01T03:27:20.264Z,3.40
2023-01-01T03:30:26.773Z,5.10
2023-01-01T03:33:39.497Z,4.65
2023-01-01T03:36:48.517Z,2.97
2023-01-01T03:39:54.866Z,3.70
2023-01-01T03:43:06.861Z,3.90
2023-01-01T03:46:13.045Z,3.05
2023-01-01T03:49:20.266Z,3.28
2023-01-01T03:52:33.583Z,2.25
2023-01-01T03:55:43.415Z,2.58
2023-01-01T03:58:55.996Z,3.05
2023-01-01T04:02:04.629Z,1.90
2023-01-01T04:05:12.455Z,4.05
2023-01-01T04:08:18.382Z,4.28
2023-01-01T04:11:45.358Z,4.43
2023-01-01T04:14:50.273Z,4.13
2023-01-01T04:17:56.749Z,4.10
2023-01-01T04:21:02.739Z,3.60
2023-01-01T04:24:10.249Z,7.67
2023-01-01T04:27:15.192Z,4.90
2023-01-01T04:30:20.307Z,4.23
2023-01-01T04:33:25.296Z,4.07
2023-01-01T04:36:31.483Z,3.43
2023-01-01T04:39:36.699Z,6.00
2023-01-01T04:42:41.633Z,3.90
2023-01-01T04:45:46.330Z,4.03
2023-01-01T04:48:51.397Z,5.53
2023-01-01T04:51:57.891Z,5.00
2023-01-01T04:55:02.534Z,2.43
2023-01-01T04:58:07.152Z,3.30
2023-01-01T05:01:17.742Z,2.40
2023-01-01T05:04:22.743Z,3.90
2023-01-01T05:07:29.364Z,2.43
2023-01-01T05:10:34.084Z,3.07
2023-01-01T05:13:39.856Z,3.17
2023-01-01T05:16:44.736Z,2.43
2023-01-01T05:19:49.871Z,1.73
2023-01-01T05:22:57.966Z,2.00
2023-01-01T05:26:02.612Z,2.40
2023-01-01T05:29:15.283Z,3.27
2023-01-01T05:32:21.030Z,4.00
2023-01-01T05:35:26.798Z,2.47
2023-01-01T05:38:33.427Z,2.20
2023-01-01T05:41:39.542Z,2.27
2023-01-01T05:44:44.269Z,1.00
2023-01-01T05:47:50.911Z,1.87
2023-01-01T05:50:55.751Z,2.00
2023-01-01T05:54:02.075Z,1.57
2023-01-01T05:57:06.720Z,2.43
2023-01-01T06:00:13.100Z,2.10
2023-01-01T06:03:18.383Z,1.53
2023-01-01T06:06:25.094Z,2.27
2023-01-01T06:09:31.321Z,1.90
2023-01-01T06:12:37.705Z,2.28
2023-01-01T06:15:42.880Z,3.20
2023-01-01T06:18:47.508Z,3.45
2023-01-01T06:21:52.337Z,2.83
2023-01-01T06:24:58.404Z,2.67
2023-01-01T06:28:04.400Z,1.77
2023-01-01T06:31:10.973Z,1.83
2023-01-01T06:34:15.931Z,2.00
2023-01-01T06:37:20.880Z,1.27
2023-01-01T06:40:27.348Z,1.98
2023-01-01T06:43:35.648Z,1.67
2023-01-01T06:46:41.324Z,3.20
2023-01-01T06:49:46.259Z,3.42
2023-01-01T06:52:50.855Z,2.83
2023-01-01T06:55:57.686Z,2.92
2023-01-01T06:59:03.341Z,1.05
2023-01-01T07:02:10.071Z,1.90
2023-01-01T07:05:15.215Z,1.73
2023-01-01T07:08:20.389Z,1.63
2023-01-01T07:11:27.314Z,3.83
2023-01-01T07:14:32.129Z,2.50
2023-01-01T07:17:39.576Z,1.75
2023-01-01T07:20:44.313Z,4.03
2023-01-01T07:23:49.280Z,2.40
2023-01-01T07:26:55.563Z,4.88
2023-01-01T07:30:00.161Z,1.80
2023-01-01T07:33:04.952Z,2.65
2023-01-01T07:36:10.687Z,1.80
2023-01-01T07:39:15.430Z,2.45
2023-01-01T07:42:22.072Z,2.45
2023-01-01T07:45:27.135Z,2.50
2023-01-01T07:48:39.587Z,2.70
2023-01-01T07:51:44.769Z,3.15
2023-01-01T07:54:49.892Z,2.47
2023-01-01T07:57:59.575Z,2.67
2023-01-01T08:01:04.548Z,2.63
2023-01-01T08:04:08.945Z,3.17
2023-01-01T08:07:13.414Z,4.15
2023-01-01T08:10:19.058Z,2.10
2023-01-01T08:13:25.559Z,1.77
2023-01-01T08:16:31.019Z,1.33
2023-01-01T08:19:36.045Z,3.15
2023-01-01T08:22:40.669Z,2.40
2023-01-01T08:25:45.345Z,1.75
2023-01-01T08:28:56.959Z,2.30
2023-01-01T08:32:03.915Z,2.25
2023-01-01T08:35:09.193Z,2.33
2023-01-01T08:38:15.153Z,2.97
2023-01-01T08:41:20.094Z,1.83
2023-01-01T08:44:26.579Z,2.20
2023-01-01T08:47:34.251Z,3.13
2023-01-01T08:50:38.901Z,2.50
2023-01-01T08:53:50.617Z,2.40
2023-01-01T08:56:55.935Z,3.08
2023-01-01T09:00:03.585Z,3.00
2023-01-01T09:03:10.191Z,2.33
2023-01-01T09:06:15.302Z,1.98
2023-01-01T09:09:25.732Z,2.50
2023-01-01T09:12:36.370Z,1.83
2023-01-01T09:15:43.469Z,2.97
2023-01-01T09:18:48.563Z,2.33
2023-01-01T09:21:54.200Z,1.77
2023-01-01T09:24:59.058Z,2.97
2023-01-01T09:28:05.124Z,4.30
2023-01-01T09:31:11.685Z,2.97
2023-01-01T09:34:16.966Z,2.47
2023-01-01T09:37:22.086Z,2.05
2023-01-01T09:40:35.847Z,2.38
2023-01-01T09:43:48.738Z,3.40
2023-01-01T09:46:56.157Z,1.77
2023-01-01T09:50:04.979Z,1.95
2023-01-01T09:53:15.308Z,2.20
2023-01-01T09:56:25.629Z,2.42
2023-01-01T09:59:30.939Z,2.83
2023-01-01T10:02:51.539Z,2.40
2023-01-01T10:06:11.124Z,1.90
2023-01-01T10:09:25.548Z,2.35
2023-01-01T10:12:38.757Z,2.03
2023-01-01T10:15:51.900Z,4.90
2023-01-01T10:19:00.845Z,3.30
2023-01-01T10:22:09.797Z,1.95
2023-01-01T10:25:20.149Z,3.58
2023-01-01T10:28:29.343Z,2.22
2023-01-01T10:31:36.540Z,2.08
2023-01-01T10:34:44.925Z,3.15
2023-01-01T10:37:53.404Z,2.78
2023-01-01T10:41:05.453Z,2.17
2023-01-01T10:44:11.090Z,1.92
2023-01-01T10:47:28.905Z,2.00
2023-01-01T10:50:45.379Z,2.00
2023-01-01T10:53:56.023Z,3.75
2023-01-01T10:57:02.432Z,1.88
2023-01-01T11:00:22.945Z,4.78
2023-01-01T11:03:29.509Z,2.10
2023-01-01T11:06:39.695Z,2.42
2023-01-01T11:09:57.209Z,2.95
2023-01-01T11:13:20.339Z,2.08
2023-01-01T11:16:25.603Z,2.13
2023-01-01T11:19:32.939Z,2.40
2023-01-01T11:22:43.695Z,2.60
2023-01-01T11:26:00.425Z,3.65
2023-01-01T11:29:19.572Z,2.90
2023-01-01T11:32:33.603Z,2.22
2023-01-01T11:35:51.763Z,1.92
2023-01-01T11:39:17.484Z,2.05
2023-01-01T11:42:25.841Z,2.10
2023-01-01T11:45:37.762Z,1.38
2023-01-01T11:48:45.925Z,2.20
2023-01-01T11:51:53.160Z,0.98
2023-01-01T11:55:06.976Z,1.38
2023-01-01T11:58:19.985Z,2.80
2023-01-01T12:01:29.142Z,2.50
2023-01-01T12:04:40.126Z,1.48
2023-01-01T12:07:46.391Z,2.08
2023-01-01T12:11:07.457Z,2.00
2023-01-01T12:14:21.880Z,3.85
2023-01-01T12:17:31.135Z,3.40
2023-01-01T12:20:40.222Z,4.28
2023-01-01T12:23:44.905Z,3.65
2023-01-01T12:27:15.976Z,4.15
2023-01-01T12:30:24.976Z,2.63
2023-01-01T12:33:46.266Z,4.20
2023-01-01T12:37:00.913Z,1.33
2023-01-01T12:40:52.077Z,3.30
2023-01-01T12:44:05.495Z,3.13
2023-01-01T12:47:19.240Z,2.03
2023-01-01T12:50:45.696Z,3.03
2023-01-01T12:54:06.363Z,2.10
2023-01-01T12:57:17.965Z,4.72
2023-01-01T13:00:26.743Z,2.05
2023-01-01T13:03:36.657Z,1.58
2023-01-01T13:06:46.079Z,3.08
2023-01-01T13:09:51.014Z,2.28
2023-01-01T13:12:57.064Z,5.13
2023-01-01T13:16:07.207Z,3.33
2023-01-01T13:19:27.769Z,3.90
2023-01-01T13:22:47.179Z,2.20
2023-01-01T13:26:11.730Z,2.58
2023-01-01T13:29:34.502Z,2.67
2023-01-01T13:33:25.135Z,2.85
2023-01-01T13:36:33.795Z,2.75
2023-01-01T13:39:54.594Z,3.20
2023-01-01T13:43:20.150Z,5.03
2023-01-01T13:46:38.855Z,3.65
2023-01-01T13:50:05.157Z,2.40
2023-01-01T13:53:31.051Z,2.05
2023-01-01T13:56:48.083Z,2.22
2023-01-01T14:00:16.583Z,2.83
2023-01-01T14:03:22.383Z,2.67
2023-01-01T14:06:37.654Z,1.50
2023-01-01T14:09:42.617Z,1.77
2023-01-01T14:12:48.124Z,2.47
2023-01-01T14:15:57.288Z,2.10
2023-01-01T14:19:03.877Z,4.18
2023-01-01T14:22:11.455Z,1.02
2023-01-01T14:25:18.950Z,2.83
2023-01-01T14:28:30.684Z,4.15
2023-01-01T14:31:41.287Z,2.80
2023-01-01T14:34:47.598Z,1.35
2023-01-01T14:37:54.109Z,2.53
2023-01-01T14:41:09.035Z,1.65
2023-01-01T14:44:17.153Z,1.58
2023-01-01T14:47:29.360Z,2.83
2023-01-01T14:50:35.726Z,5.10
2023-01-01T14:53:43.646Z,3.60
2023-01-01T14:56:53.288Z,4.60
2023-01-01T14:59:58.218Z,3.05
2023-01-01T15:03:08.781Z,3.10
2023-01-01T15:06:19.572Z,3.15
2023-01-01T15:09:28.261Z,3.13
2023-01-01T15:12:39.617Z,2.60
2023-01-01T15:15:46.119Z,2.35
2023-01-01T15:18:53.553Z,2.58
2023-01-01T15:21:58.632Z,5.05
2023-01-01T15:25:05.661Z,2.97
2023-01-01T15:28:21.384Z,3.35
2023-01-01T15:31:36.306Z,3.00
2023-01-01T15:34:48.358Z,3.13
2023-01-01T15:37:58.383Z,2.53
2023-01-01T15:41:28.526Z,6.18
2023-01-01T15:44:36.963Z,2.72
2023-01-01T15:47:42.169Z,2.08
2023-01-01T15:51:03.892Z,3.35
2023-01-01T15:54:17.758Z,4.10
2023-01-01T15:57:26.628Z,3.30
2023-01-01T16:00:38.837Z,2.65
2023-01-01T16:03:44.590Z,4.05
2023-01-01T16:06:51.242Z,2.63
2023-01-01T16:09:58.202Z,4.93
2023-01-01T16:13:05.399Z,2.17
2023-01-01T16:16:26.762Z,3.00
2023-01-01T16:19:33.611Z,2.88
2023-01-01T16:22:42.332Z,3.13
2023-01-01T16:25:47.463Z,2.63
2023-01-01T16:28:54.225Z,4.07
2023-01-01T16:31:59.417Z,5.63
2023-01-01T16:35:11.552Z,5.43
2023-01-01T16:38:16.589Z,6.65
2023-01-01T16:41:21.576Z,4.32
2023-01-01T16:44:29.552Z,3.88
2023-01-01T16:47:35.019Z,4.68
2023-01-01T16:50:40.194Z,6.10
2023-01-01T16:53:45.119Z,5.95
2023-01-01T16:56:52.002Z,3.38
2023-01-01T16:59:58.977Z,3.28
2023-01-01T17:03:03.934Z,3.50
2023-01-01T17:06:10.125Z,4.03
2023-01-01T17:09:15.892Z,2.40
2023-01-01T17:12:20.626Z,4.03
2023-01-01T17:15:26.950Z,3.70
2023-01-01T17:19:13.842Z,3.50
2023-01-01T17:21:57.125Z,7.57
2023-01-01T17:25:03.286Z,3.00
2023-01-01T17:28:08.077Z,4.22
2023-01-01T17:31:17.958Z,3.95
2023-01-01T17:34:22.775Z,2.85
2023-01-01T17:37:29.750Z,3.42
2023-01-01T17:40:36.986Z,3.38
2023-01-01T17:43:43.574Z,4.18
2023-01-01T17:46:49.867Z,2.05
2023-01-01T17:49:54.451Z,2.50
2023-01-01T17:52:59.446Z,1.98
2023-01-01T17:56:06.720Z,2.53
2023-01-01T17:59:11.614Z,2.58
2023-01-01T18:02:17.905Z,3.00
2023-01-01T18:05:22.902Z,5.25
2023-01-01T18:08:28.096Z,5.53
2023-01-01T18:11:36.021Z,6.88
2023-01-01T18:14:40.883Z,5.30
2023-01-01T18:17:47.046Z,3.77
2023-01-01T18:20:51.563Z,6.13
2023-01-01T18:23:58.030Z,3.83
2023-01-01T18:27:02.856Z,3.60
2023-01-01T18:30:08.392Z,3.47
2023-01-01T18:33:17.463Z,3.53
2023-01-01T18:36:24.839Z,4.35
2023-01-01T18:39:33.821Z,3.30
2023-01-01T18:42:45.153Z,4.60
2023-01-01T18:45:52.637Z,4.20
2023-01-01T18:49:02.064Z,8.40
2023-01-01T18:52:17.425Z,6.43
2023-01-01T18:55:27.455Z,6.40
2023-01-01T18:58:33.136Z,6.70
2023-01-01T19:01:38.188Z,5.30
2023-01-01T19:04:44.187Z,7.82
2023-01-01T19:07:58.260Z,6.70
2023-01-01T19:11:04.773Z,3.70
2023-01-01T19:14:16.830Z,2.80
2023-01-01T19:17:25.167Z,1.50
2023-01-01T19:20:31.587Z,1.52
2023-01-01T19:23:39.271Z,1.52
2023-01-01T19:26:45.084Z,0.88
2023-01-01T19:29:51.492Z,1.80
2023-01-01T19:32:56.164Z,1.92
2023-01-01T19:36:02.472Z,0.80
2023-01-01T19:39:07.671Z,2.90
2023-01-01T19:42:13.462Z,2.78
2023-01-01T19:45:20.108Z,2.10
2023-01-01T19:48:25.038Z,1.65
2023-01-01T19:51:31.235Z,1.10
2023-01-01T19:54:36.130Z,2.20
2023-01-01T19:57:41.039Z,1.15
2023-01-01T20:00:45.927Z,2.08
2023-01-01T20:03:55.942Z,0.82
2023-01-01T20:07:02.803Z,1.48
2023-01-01T20:10:07.959Z,0.60
2023-01-01T20:13:12.689Z,0.95
2023-01-01T20:16:19.697Z,1.85
2023-01-01T20:19:24.588Z,1.50
2023-01-01T20:22:31.121Z,1.80
2023-01-01T20:25:36.049Z,1.02
2023-01-01T20:28:57.444Z,1.08
2023-01-01T20:32:02.362Z,0.90
2023-01-01T20:35:07.386Z,0.85
2023-01-01T20:38:12.894Z,1.58
2023-01-01T20:41:26.152Z,1.17
2023-01-01T20:44:31.158Z,1.42
2023-01-01T20:47:37.122Z,0.77
2023-01-01T20:50:42.252Z,0.85
2023-01-01T20:53:48.302Z,0.90
2023-01-01T20:56:53.588Z,1.08
2023-01-01T20:59:58.213Z,0.70
2023-01-01T21:03:04.573Z,1.85
2023-01-01T21:06:09.601Z,1.27
2023-01-01T21:09:16.118Z,1.15
2023-01-01T21:12:30.170Z,1.20
2023-01-01T21:15:35.695Z,1.50
2023-01-01T21:18:40.322Z,0.65
2023-01-01T21:21:48.265Z,0.73
2023-01-01T21:25:10.830Z,0.98
2023-01-01T21:28:22.030Z,4.50
2023-01-01T21:31:31.778Z,1.10
2023-01-01T21:34:43.496Z,2.08
2023-01-01T21:37:53.481Z,1.00
2023-01-01T21:41:00.655Z,0.90
2023-01-01T21:44:05.471Z,1.70
2023-01-01T21:47:21.973Z,1.38
2023-01-01T21:50:28.782Z,0.60
2023-01-01T21:53:36.660Z,2.65
2023-01-01T21:56:44.926Z,1.17
2023-01-01T21:59:50.577Z,1.63
2023-01-01T22:02:55.651Z,0.95
2023-01-01T22:06:00.403Z,2.55
2023-01-01T22:09:16.016Z,0.85
2023-01-01T22:12:26.552Z,1.30
2023-01-01T22:15:39.941Z,2.67
2023-01-01T22:18:44.863Z,2.97
2023-01-01T22:21:51.035Z,0.77
2023-01-01T22:24:58.235Z,1.35
2023-01-01T22:28:19.623Z,1.45
2023-01-01T22:31:27.539Z,2.20
2023-01-01T22:34:32.702Z,0.57
2023-01-01T22:37:43.515Z,1.25
2023-01-01T22:40:51.235Z,1.73
2023-01-01T22:44:02.364Z,2.13
2023-01-01T22:47:08.506Z,1.90
2023-01-01T22:50:21.724Z,1.92
2023-01-01T22:53:26.555Z,1.60
2023-01-01T22:56:31.268Z,2.22
2023-01-01T22:59:37.553Z,4.00
2023-01-01T23:02:42.803Z,2.47
2023-01-01T23:05:47.354Z,1.75
2023-01-01T23:08:51.504Z,1.65
2023-01-01T23:11:55.938Z,3.00
2023-01-01T23:15:17.546Z,4.50
2023-01-01T23:18:20.246Z,1.90
2023-01-01T23:21:27.266Z,0.95
2023-01-01T23:24:31.520Z,1.23
2023-01-01T23:27:35.191Z,1.17
2023-01-01T23:30:39.513Z,1.10
2023-01-01T23:33:42.781Z,1.00
2023-01-01T23:36:45.715Z,2.88
2023-01-01T23:39:49.111Z,2.08
2023-01-01T23:42:51.763Z,3.42
2023-01-01T23:45:56.067Z,1.05
2023-01-01T23:48:58.756Z,2.05
2023-01-01T23:52:02.664Z,1.65
2023-01-01T23:55:06.055Z,2.42
2023-01-01T23:58:08.727Z,0.98
